»·PEaware :: N203CT L35-KTNP

N203CT :: L35-KTNP

FLIGHT INFORMATION

Flight Status: Arrived
Operator: Privately registered:
United States
More flights under this callsign
Pilot: Anonymous 23456 (23456)
Aircraft: CESSNA 172 SKYHAWK
(C172)
More flights by this aircraft type
Origin: L35 Big Bear City
United States
Destination: KTNP Twentynine Palms
United States
More flights between these airports :: More routes between these airports
Route: VFR DCT
File this flight plan on PilotEdge
Remarks:
Altitude:
(Current/Filed)
9,500ft
Speed:
(Current/Filed)
120kts
Departed: 10-Feb-19 11:41 AM
Arrived: 10-Feb-19 12:07 PM
Distance/Time
Traveled:
45nm/0:26
Distance/Time
To Go:
Arrived

Flight Plot

Page will automatically refresh every two minutes.

Flight plan parsing failed; only flown route is shown


Map Options




Map Legend


Flown Route
Filed Route
Departure Airport
Arrival Airport
Navaid (VOR, NDB)
Fix

Horizontal Profiles

Position Reports

Time Latitude Longitude Heading Altitude Ground
Speed
10-Feb-19 11:10 34.263331 -116.846495 31 6755ft 0kts
10-Feb-19 11:11 34.263331 -116.846495 31 6755ft 0kts
10-Feb-19 11:12 34.263331 -116.846495 31 6755ft 0kts
10-Feb-19 11:13 34.263331 -116.846495 31 6755ft 0kts
10-Feb-19 11:14 34.263331 -116.846495 31 6755ft 0kts
10-Feb-19 11:15 34.263331 -116.846495 31 6755ft 0kts
10-Feb-19 11:16 34.263331 -116.846495 31 6755ft 0kts
10-Feb-19 11:17 34.263331 -116.846495 31 6755ft 0kts
10-Feb-19 11:18 34.263331 -116.846495 31 6755ft 0kts
10-Feb-19 11:19 34.263331 -116.846495 31 6755ft 0kts
10-Feb-19 11:20 34.263331 -116.846495 31 6755ft 0kts
10-Feb-19 11:21 34.263331 -116.846495 31 6755ft 0kts
10-Feb-19 11:22 34.263331 -116.846495 31 6755ft 0kts
10-Feb-19 11:23 34.263331 -116.846495 31 6755ft 0kts
10-Feb-19 11:24 34.263331 -116.846495 31 6755ft 0kts
10-Feb-19 11:25 34.263331 -116.846495 31 6755ft 0kts
10-Feb-19 11:26 34.263331 -116.846495 31 6755ft 0kts
10-Feb-19 11:27 34.263331 -116.846495 31 6755ft 0kts
10-Feb-19 11:28 34.263331 -116.846495 31 6755ft 0kts
10-Feb-19 11:29 34.263331 -116.846495 31 6755ft 0kts
10-Feb-19 11:30 34.263331 -116.846495 31 6755ft 0kts
10-Feb-19 11:31 34.263331 -116.846495 31 6755ft 0kts
10-Feb-19 11:32 34.263331 -116.846495 31 6755ft 0kts
10-Feb-19 11:33 34.263331 -116.846495 31 6755ft 0kts
10-Feb-19 11:34 34.263121 -116.846600 230 6755ft 1kts
10-Feb-19 11:35 34.263111 -116.846666 278 6755ft 0kts
10-Feb-19 11:36 34.263474 -116.846419 1 6755ft 0kts
10-Feb-19 11:37 34.263475 -116.846419 0 6755ft 0kts
10-Feb-19 11:38 34.263475 -116.846419 0 6755ft 0kts
10-Feb-19 11:39 34.263475 -116.846419 0 6755ft 0kts
10-Feb-19 11:40 34.263823 -116.848513 270 6755ft 47kts
10-Feb-19 11:41 34.262135 -116.870514 204 7221ft 66kts
10-Feb-19 11:42 34.247241 -116.863779 100 7750ft 73kts
10-Feb-19 11:43 34.247083 -116.835410 92 8180ft 95kts
10-Feb-19 11:44 34.243223 -116.803558 98 8800ft 86kts
10-Feb-19 11:45 34.239793 -116.776450 98 9407ft 77kts
10-Feb-19 11:46 34.235654 -116.744056 98 9494ft 116kts
10-Feb-19 11:47 34.230413 -116.703279 98 9491ft 125kts
10-Feb-19 11:48 34.225125 -116.661890 98 9490ft 125kts
10-Feb-19 11:49 34.219768 -116.619968 98 9490ft 126kts
10-Feb-19 11:50 34.214404 -116.578078 98 9490ft 126kts
10-Feb-19 11:51 34.209034 -116.536255 98 9490ft 126kts
10-Feb-19 11:52 34.203614 -116.494327 98 9490ft 126kts
10-Feb-19 11:53 34.198213 -116.452530 98 9490ft 126kts
10-Feb-19 11:54 34.192775 -116.410521 98 9490ft 126kts
10-Feb-19 11:55 34.187346 -116.368704 98 9490ft 126kts
10-Feb-19 11:57 34.181871 -116.326644 99 9422ft 131kts
10-Feb-19 11:58 34.175975 -116.281769 99 8722ft 133kts
10-Feb-19 11:59 34.165721 -116.238372 107 7943ft 135kts
10-Feb-19 12:00 34.158628 -116.193556 100 7142ft 136kts
10-Feb-19 12:01 34.151954 -116.148542 100 6339ft 136kts
10-Feb-19 12:02 34.145173 -116.102793 100 5403ft 140kts
10-Feb-19 12:03 34.138193 -116.056078 101 4399ft 141kts
10-Feb-19 12:04 34.134110 -116.017061 93 4009ft 112kts
10-Feb-19 12:05 34.133797 -115.981474 88 3136ft 92kts
10-Feb-19 12:06 34.134337 -115.953502 88 1916ft 64kts
10-Feb-19 12:07 34.135202 -115.946913 79 1889ft 11kts
10-Feb-19 12:08 34.135721 -115.943094 59 1885ft 12kts
10-Feb-19 12:09 34.135835 -115.942176 174 1884ft 0kts
10-Feb-19 12:10 34.135835 -115.942176 174 1884ft 0kts
10-Feb-19 12:11 34.135835 -115.942176 174 1884ft 0kts
10-Feb-19 12:11 34.135835 -115.942176 174 1884ft 0kts
10-Feb-19 12:13 34.135835 -115.942176 174 1884ft 0kts
10-Feb-19 12:14 34.135835 -115.942176 174 1884ft 0kts
10-Feb-19 12:15 34.135835 -115.942176 174 1884ft 0kts
10-Feb-19 12:15 34.135835 -115.942176 174 1884ft 0kts
10-Feb-19 12:16 34.135835 -115.942176 174 1884ft 0kts
10-Feb-19 12:18 34.135835 -115.942176 174 1884ft 0kts
10-Feb-19 12:19 34.135834 -115.942176 174 1884ft 0kts
10-Feb-19 12:19 34.135792 -115.942304 268 1884ft 5kts
10-Feb-19 12:20 34.135223 -115.946811 266 1889ft 20kts
10-Feb-19 12:21 34.135165 -115.953293 254 1890ft 3kts

Navigation Log

Ident Type
Flight plan parsing failed, navigation log unavailable